This is the latest recevied weather packets stored in our database for station/object IZ8QAD-12. If no packets are shown the sender has not sent any weather packets the latest 10 day(s).
| Time | Temp. | Humidity | Pressure | Rain* | Wind** | Luminosity | Snow |
|---|---|---|---|---|---|---|---|
| 1777705941 | 27.78° C | 23% | 975.3 hPa | - | - | - | - |
| 1777703241 | 17.22° C | 42% | 975.4 hPa | - | - | - | - |
| 1777700541 | 8.89° C | 57% | 975.2 hPa | - | - | - | - |
| 1777697841 | 6.11° C | 57% | 975.2 hPa | - | - | - | - |
| 1777695141 | 6.11° C | 56% | 974.9 hPa | - | - | - | - |
| 1777692441 | 5° C | 51% | 974.6 hPa | - | - | - | - |
| 1777689741 | 5° C | 47% | 974.7 hPa | - | - | - | - |
| 1777687041 | 6.67° C | 45% | 974.8 hPa | - | - | - | - |
| 1777684340 | 7.78° C | 44% | 974.8 hPa | - | - | - | - |
| 1777681641 | 6.67° C | 42% | 975.2 hPa | - | - | - | - |
| 1777678940 | 5.56° C | 41% | 975.2 hPa | - | - | - | - |
| 1777676240 | 5.56° C | 41% | 975.2 hPa | - | - | - | - |
| 1777673550 | 5° C | 40% | 975.1 hPa | - | - | - | - |
| 1777670840 | 6.11° C | 39% | 975.3 hPa | - | - | - | - |
| 1777668140 | 6.67° C | 38% | 975.2 hPa | - | - | - | - |
| 1777665440 | 7.22° C | 38% | 974.9 hPa | - | - | - | - |
| 1777662740 | 7.22° C | 36% | 974.6 hPa | - | - | - | - |
| 1777660040 | 8.33° C | 33% | 974.2 hPa | - | - | - | - |
| 1777657340 | 9.44° C | 29% | 973.7 hPa | - | - | - | - |
| 1777654640 | 10.56° C | 28% | 973.3 hPa | - | - | - | - |
| 1777651940 | 12.22° C | 28% | 973.4 hPa | - | - | - | - |
| 1777649248 | 14.44° C | 26% | 972.7 hPa | - | - | - | - |
| 1777646539 | 16.11° C | 24% | 972.7 hPa | - | - | - | - |
| 1777641139 | 27.78° C | 14% | 973.4 hPa | - | - | - | - |
| 1777638439 | 35° C | 11% | 973.7 hPa | - | - | - | - |
* Rain since midnight (hover to see other rain measurements)
** Current wind speed in m/s (hover to see current wind gust speed)